createdAt,value
2022-10-19T00:01:32.402Z,102231.47
2022-10-19T00:04:22.736Z,102226.16
2022-10-19T00:07:21.905Z,102220.00
2022-10-19T00:10:15.336Z,102221.72
2022-10-19T00:12:58.596Z,102211.13
2022-10-19T00:15:43.417Z,102207.59
2022-10-19T00:18:28.044Z,102216.41
2022-10-19T00:21:11.389Z,102211.13
2022-10-19T00:23:49.884Z,102202.31
2022-10-19T00:26:31.469Z,102210.25
2022-10-19T00:29:08.301Z,102216.44
2022-10-19T00:31:59.850Z,102212.91
2022-10-19T00:34:44.631Z,102213.78
2022-10-19T00:37:27.387Z,102214.66
2022-10-19T00:40:13.305Z,102205.84
2022-10-19T00:42:58.285Z,102205.84
2022-10-19T00:45:41.093Z,102209.38
2022-10-19T00:48:33.580Z,102200.56
2022-10-19T00:51:16.301Z,102193.50
2022-10-19T00:53:56.467Z,102187.31
2022-10-19T00:56:42.063Z,102203.19
2022-10-19T01:02:32.529Z,102185.56
2022-10-19T01:05:03.466Z,102190.84
2022-10-19T01:07:31.916Z,102189.09
2022-10-19T01:10:04.080Z,102180.25
2022-10-19T01:12:38.376Z,102175.88
2022-10-19T01:15:23.437Z,102174.97
2022-10-19T01:18:01.659Z,102180.28
2022-10-19T01:21:19.468Z,102164.41
2022-10-19T01:24:00.628Z,102167.94
2022-10-19T01:26:54.740Z,102168.81
2022-10-19T01:29:36.491Z,102160.88
2022-10-19T01:32:10.659Z,102165.28
2022-10-19T01:35:03.809Z,102169.69
2022-10-19T01:37:57.479Z,102158.25
2022-10-19T01:40:49.517Z,102155.59
2022-10-19T01:43:23.418Z,102146.75
2022-10-19T01:46:20.255Z,102151.13
2022-10-19T01:49:06.981Z,102136.19
2022-10-19T01:51:39.618Z,102130.91
2022-10-19T01:54:13.214Z,102137.09
2022-10-19T01:56:44.706Z,102137.09
2022-10-19T02:02:21.405Z,102130.00
2022-10-19T02:05:03.283Z,102125.63
2022-10-19T02:07:50.116Z,102124.69
2022-10-19T02:10:36.681Z,102111.47
2022-10-19T02:13:31.101Z,102112.34
2022-10-19T02:16:20.770Z,102111.47
2022-10-19T02:19:06.586Z,102117.63
2022-10-19T02:22:22.467Z,102106.19
2022-10-19T02:25:04.314Z,102108.81
2022-10-19T02:27:44.291Z,102105.28
2022-10-19T02:30:36.503Z,102100.91
2022-10-19T02:33:19.889Z,102090.31
2022-10-19T02:36:16.221Z,102101.78
2022-10-19T02:39:03.337Z,102093.81
2022-10-19T02:42:22.024Z,102086.78
2022-10-19T02:45:08.964Z,102087.66
2022-10-19T02:48:01.731Z,102080.59
2022-10-19T02:50:54.166Z,102077.94
2022-10-19T02:53:42.500Z,102070.03
2022-10-19T02:56:27.057Z,102079.72
2022-10-19T03:02:22.406Z,102067.38
2022-10-19T03:04:52.682Z,102069.16
2022-10-19T03:07:24.266Z,102066.50
2022-10-19T03:09:54.947Z,102058.56
2022-10-19T03:12:24.337Z,102068.25
2022-10-19T03:14:53.993Z,102062.09
2022-10-19T03:17:24.001Z,102055.94
2022-10-19T03:19:52.630Z,102048.91
2022-10-19T03:22:20.708Z,102056.84
2022-10-19T03:24:49.374Z,102056.81
2022-10-19T03:27:17.277Z,102040.06
2022-10-19T03:29:45.078Z,102040.09
2022-10-19T03:32:12.909Z,102030.38
2022-10-19T03:34:40.678Z,102026.00
2022-10-19T03:37:09.218Z,102017.16
2022-10-19T03:39:36.875Z,102027.75
2022-10-19T03:42:04.546Z,102019.81
2022-10-19T03:44:34.222Z,101999.56
2022-10-19T03:47:05.274Z,102009.25
2022-10-19T03:49:36.845Z,102004.84
2022-10-19T03:52:08.222Z,102013.66
2022-10-19T03:54:36.154Z,102011.91
2022-10-19T03:57:09.003Z,101997.81
2022-10-19T03:59:37.550Z,101981.97
2022-10-19T04:02:18.940Z,101992.53
2022-10-19T04:04:46.748Z,101976.69
2022-10-19T04:07:15.436Z,101979.31
2022-10-19T04:09:45.910Z,101979.31
2022-10-19T04:12:17.467Z,101981.97
2022-10-19T04:14:57.356Z,101977.53
2022-10-19T04:17:31.128Z,101977.56
2022-10-19T04:20:00.613Z,101983.69
2022-10-19T04:22:32.428Z,101977.56
2022-10-19T04:25:13.332Z,101972.28
2022-10-19T04:27:44.371Z,101959.94
2022-10-19T04:30:13.291Z,101966.09
2022-10-19T04:32:41.261Z,101973.13
2022-10-19T04:35:13.934Z,101971.38
2022-10-19T04:37:42.109Z,101973.16
2022-10-19T04:40:14.964Z,101971.41
2022-10-19T04:42:43.069Z,101977.53
2022-10-19T04:45:11.178Z,101964.34
2022-10-19T04:47:41.354Z,101959.94
2022-10-19T04:50:10.096Z,101959.06
2022-10-19T04:52:38.351Z,101954.66
2022-10-19T04:55:06.802Z,101949.38
2022-10-19T04:57:36.930Z,101950.28
2022-10-19T05:00:06.223Z,101944.97
2022-10-19T05:02:34.461Z,101964.34
2022-10-19T05:05:04.047Z,101966.91
2022-10-19T05:07:31.882Z,101977.50
2022-10-19T05:10:00.143Z,101974.81
2022-10-19T05:12:46.036Z,101989.75
2022-10-19T05:15:22.707Z,101989.78
2022-10-19T05:17:54.105Z,101975.66
2022-10-19T05:20:22.892Z,101966.91
2022-10-19T05:22:50.908Z,101959.84
2022-10-19T05:25:18.938Z,101963.38
2022-10-19T05:27:52.398Z,101966.00
2022-10-19T05:30:22.495Z,101961.63
2022-10-19T05:32:50.370Z,101965.13
2022-10-19T05:35:21.503Z,101962.53
2022-10-19T05:38:00.215Z,101966.88
2022-10-19T05:40:28.448Z,101964.25
2022-10-19T05:42:55.852Z,101972.16
2022-10-19T05:45:23.473Z,101967.78
2022-10-19T05:47:51.058Z,101969.50
2022-10-19T05:50:21.801Z,101969.47
2022-10-19T05:52:49.477Z,101961.59
2022-10-19T05:55:17.067Z,101965.13
2022-10-19T05:57:45.367Z,101963.38
2022-10-19T06:00:13.579Z,101972.16
2022-10-19T06:02:42.566Z,101981.81
2022-10-19T06:05:10.449Z,101980.06
2022-10-19T06:07:38.722Z,101990.66
2022-10-19T06:10:08.440Z,101998.59
2022-10-19T06:12:38.407Z,101989.81
2022-10-19T06:15:06.819Z,101980.09
2022-10-19T06:17:35.066Z,101977.47
2022-10-19T06:20:03.168Z,101969.56
2022-10-19T06:22:31.326Z,101971.34
2022-10-19T06:25:01.811Z,101967.81
2022-10-19T06:27:30.187Z,101966.03
2022-10-19T06:29:58.835Z,101956.38
2022-10-19T06:32:29.403Z,101969.59
2022-10-19T06:34:57.226Z,101971.38
2022-10-19T06:37:24.998Z,101956.41
2022-10-19T06:39:54.182Z,101976.66
2022-10-19T06:42:22.171Z,101988.13
2022-10-19T06:44:55.404Z,101982.81
2022-10-19T06:47:23.710Z,101974.00
2022-10-19T06:50:00.100Z,101971.38
2022-10-19T06:52:28.373Z,101974.03
2022-10-19T06:55:06.274Z,101987.25
2022-10-19T06:57:39.570Z,101988.13
2022-10-19T07:00:21.427Z,101988.13
2022-10-19T07:02:54.844Z,101987.25
2022-10-19T07:05:25.942Z,101983.72
2022-10-19T07:07:54.677Z,101989.00
2022-10-19T07:10:38.324Z,101986.38
2022-10-19T07:13:12.236Z,101985.50
2022-10-19T07:15:42.859Z,101978.44
2022-10-19T07:18:15.234Z,101989.88
2022-10-19T07:20:44.389Z,101987.22
2022-10-19T07:23:13.784Z,101998.69
2022-10-19T07:25:48.228Z,102003.97
2022-10-19T07:28:16.996Z,102010.13
2022-10-19T07:30:55.666Z,102021.59
2022-10-19T07:36:29.328Z,102040.09
2022-10-19T07:39:13.334Z,102021.63
2022-10-19T07:41:46.261Z,102027.72
2022-10-19T07:44:26.720Z,102021.56
2022-10-19T07:47:01.707Z,102025.06
2022-10-19T07:49:34.018Z,102020.66
2022-10-19T07:52:08.818Z,102023.31
2022-10-19T07:54:37.127Z,102019.75
2022-10-19T07:57:05.827Z,102018.00
2022-10-19T07:59:37.681Z,102021.50
2022-10-19T08:02:10.218Z,102025.03
2022-10-19T08:04:59.508Z,102025.00
2022-10-19T08:07:38.811Z,102028.50
2022-10-19T08:10:10.827Z,102033.81
2022-10-19T08:12:47.546Z,102024.97
2022-10-19T08:15:16.035Z,102029.41
2022-10-19T08:17:47.429Z,102038.22
2022-10-19T08:20:20.246Z,102041.75
2022-10-19T08:22:56.493Z,102038.25
2022-10-19T08:25:28.892Z,102035.63
2022-10-19T08:27:59.071Z,102045.31
2022-10-19T08:30:27.629Z,102046.16
2022-10-19T08:33:00.094Z,102046.16
2022-10-19T08:35:36.458Z,102042.66
2022-10-19T08:38:12.664Z,102045.25
2022-10-19T08:40:41.547Z,102024.09
2022-10-19T08:43:37.685Z,102020.50
2022-10-19T08:46:52.798Z,102019.63
2022-10-19T08:49:26.505Z,102017.78
2022-10-19T08:52:34.638Z,102028.38
2022-10-19T08:55:19.669Z,102027.41
2022-10-19T08:58:12.615Z,102036.16
2022-10-19T09:00:59.166Z,102037.03
2022-10-19T09:03:56.535Z,102037.91
2022-10-19T09:06:36.033Z,102037.03
2022-10-19T09:09:16.140Z,102034.34
2022-10-19T09:12:05.397Z,102039.66
2022-10-19T09:14:51.158Z,102041.41
2022-10-19T09:17:22.275Z,102047.59
2022-10-19T09:19:56.573Z,102049.34
2022-10-19T09:22:32.190Z,102037.75
2022-10-19T09:25:18.644Z,102033.28
2022-10-19T09:27:51.213Z,102028.72
2022-10-19T09:30:22.963Z,102035.72
2022-10-19T09:33:03.956Z,102036.47
2022-10-19T09:35:51.795Z,102047.88
2022-10-19T09:38:30.100Z,102046.88
2022-10-19T09:41:15.348Z,102029.06
2022-10-19T09:44:01.063Z,102033.28
2022-10-19T09:46:53.096Z,102029.59
2022-10-19T09:49:40.815Z,102026.59
2022-10-19T09:52:38.496Z,102029.00
2022-10-19T09:55:31.553Z,102038.72
2022-10-19T09:58:22.220Z,102021.72
2022-10-19T10:01:04.531Z,102019.41
2022-10-19T10:03:51.123Z,102022.78
2022-10-19T10:06:33.329Z,102026.88
2022-10-19T10:09:06.982Z,102026.53
2022-10-19T10:11:38.902Z,102022.91
2022-10-19T10:14:23.884Z,102015.19
2022-10-19T10:17:03.407Z,102012.50
2022-10-19T10:19:34.557Z,102003.91
2022-10-19T10:22:07.567Z,102001.03
2022-10-19T10:24:38.248Z,101993.06
2022-10-19T10:27:07.293Z,101989.44
2022-10-19T10:29:38.315Z,101980.69
2022-10-19T10:32:19.201Z,101988.22
2022-10-19T10:35:03.356Z,101988.72
2022-10-19T10:37:41.391Z,101988.41
2022-10-19T10:40:27.230Z,101974.53
2022-10-19T10:42:58.596Z,101979.75
2022-10-19T10:45:44.087Z,101982.16
2022-10-19T10:48:28.481Z,101986.13
2022-10-19T10:50:58.511Z,101980.81
2022-10-19T10:53:39.059Z,101973.81
2022-10-19T10:56:32.632Z,101970.69
2022-10-19T10:59:17.496Z,101987.03
2022-10-19T11:02:15.428Z,101988.91
2022-10-19T11:04:52.616Z,101984.56
2022-10-19T11:07:27.830Z,101979.97
2022-10-19T11:10:22.692Z,101968.41
2022-10-19T11:13:06.295Z,101973.09
2022-10-19T11:15:55.801Z,101966.03
2022-10-19T11:18:55.712Z,101965.66
2022-10-19T11:21:45.357Z,101963.13
2022-10-19T11:24:31.764Z,101960.56
2022-10-19T11:27:21.139Z,101956.94
2022-10-19T11:30:01.014Z,101957.84
2022-10-19T11:33:08.919Z,101949.19
2022-10-19T11:35:56.033Z,101947.91
2022-10-19T11:38:46.629Z,101945.13
2022-10-19T11:41:40.712Z,101931.09
2022-10-19T11:44:18.408Z,101934.94
2022-10-19T11:47:01.621Z,101940.72
2022-10-19T11:49:40.057Z,101934.25
2022-10-19T11:52:57.998Z,101941.06
2022-10-19T11:55:43.730Z,101928.19
2022-10-19T11:58:32.366Z,101919.91
2022-10-19T12:01:24.260Z,101914.81
2022-10-19T12:04:05.065Z,101919.78
2022-10-19T12:06:43.184Z,101911.75
2022-10-19T12:09:20.369Z,101907.31
2022-10-19T12:11:59.452Z,101905.41
2022-10-19T12:14:32.820Z,101893.56
2022-10-19T12:19:48.805Z,101890.75
2022-10-19T12:22:23.257Z,101890.69
2022-10-19T12:24:56.029Z,101876.97
2022-10-19T12:27:53.671Z,101863.47
2022-10-19T12:30:24.656Z,101863.94
2022-10-19T12:33:24.631Z,101861.50
2022-10-19T12:36:31.786Z,101865.34
2022-10-19T12:39:06.364Z,101847.50
2022-10-19T12:41:36.148Z,101858.44
2022-10-19T12:44:21.255Z,101862.38
2022-10-19T12:46:56.509Z,101869.75
2022-10-19T12:49:34.359Z,101855.19
2022-10-19T12:52:05.780Z,101847.28
2022-10-19T12:54:47.138Z,101841.09
2022-10-19T12:57:28.758Z,101847.75
2022-10-19T13:00:29.654Z,101821.78
2022-10-19T13:06:30.525Z,101822.41
2022-10-19T13:10:09.548Z,101816.19
2022-10-19T13:12:47.308Z,101810.03
2022-10-19T13:15:47.811Z,101796.38
2022-10-19T13:18:41.416Z,101791.59
2022-10-19T13:22:07.744Z,101785.53
2022-10-19T13:25:26.105Z,101781.13
2022-10-19T13:28:40.156Z,101792.81
2022-10-19T13:31:39.061Z,101787.88
2022-10-19T13:34:17.083Z,101782.63
2022-10-19T13:37:06.029Z,101768.66
2022-10-19T13:39:46.746Z,101758.88
2022-10-19T13:42:28.936Z,101749.81
2022-10-19T13:45:00.283Z,101747.78
2022-10-19T13:47:42.476Z,101751.09
2022-10-19T13:50:48.898Z,101752.41
2022-10-19T13:53:56.872Z,101746.00
2022-10-19T13:56:59.502Z,101740.91
2022-10-19T13:59:54.596Z,101743.28
2022-10-19T14:03:00.682Z,101743.47
2022-10-19T14:05:34.598Z,101732.03
2022-10-19T14:09:12.600Z,101733.50
2022-10-19T14:11:58.518Z,101749.25
2022-10-19T14:14:30.698Z,101744.72
2022-10-19T14:17:04.623Z,101748.00
2022-10-19T14:19:58.408Z,101747.84
2022-10-19T14:22:39.270Z,101742.84
2022-10-19T14:25:19.539Z,101746.69
2022-10-19T14:28:01.730Z,101742.81
2022-10-19T14:30:32.914Z,101735.50
2022-10-19T14:33:05.027Z,101742.31
2022-10-19T14:35:36.463Z,101735.94
2022-10-19T14:38:09.277Z,101730.16
2022-10-19T14:40:47.208Z,101730.31
2022-10-19T14:43:29.044Z,101734.00
2022-10-19T14:46:17.822Z,101735.50
2022-10-19T14:48:50.412Z,101725.13
2022-10-19T14:51:51.940Z,101738.72
2022-10-19T14:54:33.509Z,101743.03
2022-10-19T14:57:29.166Z,101741.63
2022-10-19T15:00:09.737Z,101743.03
2022-10-19T15:02:45.271Z,101748.22
2022-10-19T15:05:23.621Z,101740.97
2022-10-19T15:07:55.104Z,101737.06
2022-10-19T15:10:52.378Z,101734.44
2022-10-19T15:13:34.873Z,101726.94
2022-10-19T15:16:03.086Z,101724.50
2022-10-19T15:18:56.121Z,101726.41
2022-10-19T15:21:27.272Z,101719.81
2022-10-19T15:24:08.100Z,101722.16
2022-10-19T15:26:37.127Z,101712.06
2022-10-19T15:29:11.145Z,101709.22
2022-10-19T15:31:40.923Z,101715.75
2022-10-19T15:34:25.598Z,101722.72
2022-10-19T15:37:02.798Z,101726.56
2022-10-19T15:39:39.741Z,101714.66
2022-10-19T15:42:38.112Z,101717.09
2022-10-19T15:45:48.847Z,101707.53
2022-10-19T15:48:24.221Z,101721.13
2022-10-19T15:50:53.593Z,101713.91
2022-10-19T15:53:28.573Z,101696.28
2022-10-19T15:55:59.606Z,101712.09
2022-10-19T15:58:31.558Z,101716.91
2022-10-19T16:01:00.203Z,101706.78
2022-10-19T16:03:28.175Z,101709.25
2022-10-19T16:05:56.501Z,101700.97
2022-10-19T16:08:51.520Z,101696.81
2022-10-19T16:11:23.690Z,101689.78
2022-10-19T16:13:55.458Z,101689.56
2022-10-19T16:16:32.915Z,101689.31
2022-10-19T16:19:08.594Z,101699.13
2022-10-19T16:22:04.619Z,101698.16
2022-10-19T16:24:32.574Z,101694.88
2022-10-19T16:27:00.407Z,101696.38
2022-10-19T16:29:30.884Z,101702.41
2022-10-19T16:31:58.935Z,101700.84
2022-10-19T16:34:29.744Z,101694.72
2022-10-19T16:37:04.137Z,101704.78
2022-10-19T16:39:35.140Z,101700.56
2022-10-19T16:42:04.689Z,101699.75
2022-10-19T16:44:34.550Z,101699.03
2022-10-19T16:47:02.509Z,101692.88
2022-10-19T16:49:31.814Z,101691.16
2022-10-19T16:52:03.350Z,101694.03
2022-10-19T16:54:35.802Z,101690.34
2022-10-19T16:57:09.584Z,101693.25
2022-10-19T16:59:43.289Z,101686.84
2022-10-19T17:02:12.765Z,101696.25
2022-10-19T17:04:43.086Z,101695.44
2022-10-19T17:07:14.990Z,101689.75
2022-10-19T17:09:43.746Z,101691.66
2022-10-19T17:12:12.850Z,101693.94
2022-10-19T17:14:47.510Z,101701.16
2022-10-19T17:17:19.572Z,101694.34
2022-10-19T17:19:49.358Z,101703.88
2022-10-19T17:22:17.967Z,101707.28
2022-10-19T17:24:55.710Z,101708.41
2022-10-19T17:29:56.361Z,101710.03
2022-10-19T17:32:26.176Z,101708.47
2022-10-19T17:34:56.365Z,101706.03
2022-10-19T17:37:28.045Z,101707.41
2022-10-19T17:40:03.806Z,101708.59
2022-10-19T17:42:35.570Z,101710.22
2022-10-19T17:45:07.531Z,101700.53
2022-10-19T17:47:44.201Z,101705.00
2022-10-19T17:50:17.490Z,101706.03
2022-10-19T17:52:48.284Z,101718.16
2022-10-19T17:55:17.968Z,101715.72
2022-10-19T17:57:46.511Z,101724.78
2022-10-19T18:00:18.455Z,101721.13
2022-10-19T18:02:52.588Z,101710.28
2022-10-19T18:05:24.852Z,101702.09
2022-10-19T18:07:59.168Z,101711.63
2022-10-19T18:10:30.525Z,101712.56
2022-10-19T18:13:01.362Z,101716.56
2022-10-19T18:15:44.652Z,101708.63
2022-10-19T18:18:22.395Z,101715.59
2022-10-19T18:20:54.618Z,101709.63
2022-10-19T18:23:23.124Z,101711.56
2022-10-19T18:25:54.406Z,101704.47
2022-10-19T18:28:29.091Z,101710.72
2022-10-19T18:31:20.713Z,101705.94
2022-10-19T18:36:42.836Z,101710.19
2022-10-19T18:39:13.816Z,101703.31
2022-10-19T18:41:45.782Z,101702.31
2022-10-19T18:44:22.152Z,101701.50
2022-10-19T18:47:15.194Z,101699.94
2022-10-19T18:49:44.720Z,101700.59
2022-10-19T18:52:40.178Z,101692.00
2022-10-19T18:55:22.491Z,101698.22
2022-10-19T18:58:10.123Z,101691.06
2022-10-19T19:00:45.822Z,101692.88
2022-10-19T19:03:37.382Z,101690.25
2022-10-19T19:06:19.602Z,101690.13
2022-10-19T19:08:48.812Z,101687.41
2022-10-19T19:11:33.056Z,101689.34
2022-10-19T19:14:26.701Z,101691.84
2022-10-19T19:16:57.858Z,101691.69
2022-10-19T19:19:31.314Z,101692.69
2022-10-19T19:22:07.938Z,101689.22
2022-10-19T19:24:48.704Z,101683.97
2022-10-19T19:27:30.768Z,101680.41
2022-10-19T19:30:07.899Z,101688.72
2022-10-19T19:32:40.719Z,101687.81
2022-10-19T19:35:13.653Z,101688.47
2022-10-19T19:37:46.576Z,101688.59
2022-10-19T19:40:15.744Z,101688.53
2022-10-19T19:42:54.765Z,101687.16
2022-10-19T19:45:35.479Z,101674.38
2022-10-19T19:48:23.917Z,101669.19
2022-10-19T19:51:08.813Z,101672.94
2022-10-19T19:53:42.841Z,101671.75
2022-10-19T19:56:26.391Z,101682.72
2022-10-19T19:59:40.018Z,101682.66
2022-10-19T20:02:23.472Z,101690.59
2022-10-19T20:05:05.356Z,101690.59
2022-10-19T20:07:38.861Z,101690.69
2022-10-19T20:10:51.993Z,101692.19
2022-10-19T20:16:47.263Z,101703.59
2022-10-19T20:19:31.561Z,101690.59
2022-10-19T20:22:05.626Z,101694.09
2022-10-19T20:24:46.954Z,101694.94
2022-10-19T20:27:15.956Z,101688.03
2022-10-19T20:29:48.626Z,101678.91
2022-10-19T20:32:22.585Z,101668.28
2022-10-19T20:34:53.903Z,101665.63
2022-10-19T20:40:23.165Z,101664.47
2022-10-19T20:42:59.772Z,101657.31
2022-10-19T20:45:32.650Z,101656.31
2022-10-19T20:48:19.456Z,101662.50
2022-10-19T20:50:49.628Z,101678.38
2022-10-19T20:53:24.771Z,101683.72
2022-10-19T20:55:56.886Z,101682.94
2022-10-19T20:58:29.063Z,101678.28
2022-10-19T21:01:11.698Z,101677.41
2022-10-19T21:04:06.121Z,101681.81
2022-10-19T21:06:44.074Z,101680.00
2022-10-19T21:09:18.842Z,101679.97
2022-10-19T21:11:49.003Z,101687.84
2022-10-19T21:14:32.333Z,101689.63
2022-10-19T21:17:02.028Z,101683.44
2022-10-19T21:19:36.472Z,101670.41
2022-10-19T21:22:09.812Z,101678.28
2022-10-19T21:24:38.865Z,101679.16
2022-10-19T21:27:15.122Z,101680.03
2022-10-19T21:29:46.427Z,101681.81
2022-10-19T21:32:32.867Z,101666.78
2022-10-19T21:35:12.819Z,101668.56
2022-10-19T21:37:51.908Z,101664.09
2022-10-19T21:40:37.019Z,101668.53
2022-10-19T21:43:20.343Z,101670.31
2022-10-19T21:46:18.747Z,101670.31
2022-10-19T21:49:08.419Z,101672.16
2022-10-19T21:51:55.747Z,101665.06
2022-10-19T21:54:36.674Z,101652.72
2022-10-19T21:57:05.606Z,101656.28
2022-10-19T21:59:42.867Z,101665.16
2022-10-19T22:02:14.468Z,101666.91
2022-10-19T22:04:42.559Z,101665.16
2022-10-19T22:07:13.605Z,101665.16
2022-10-19T22:09:47.344Z,101658.09
2022-10-19T22:12:17.088Z,101657.22
2022-10-19T22:14:46.043Z,101651.91
2022-10-19T22:17:29.340Z,101650.16
2022-10-19T22:19:58.168Z,101654.59
2022-10-19T22:22:27.361Z,101654.63
2022-10-19T22:24:55.458Z,101646.72
2022-10-19T22:27:26.224Z,101638.78
2022-10-19T22:29:58.217Z,101638.81
2022-10-19T22:32:27.091Z,101640.56
2022-10-19T22:34:55.300Z,101627.38
2022-10-19T22:37:26.754Z,101628.19
2022-10-19T22:39:54.750Z,101631.75
2022-10-19T22:43:02.411Z,101636.22
2022-10-19T22:45:51.547Z,101631.84
2022-10-19T22:48:24.619Z,101629.22
2022-10-19T22:50:56.037Z,101636.28
2022-10-19T22:53:25.370Z,101626.66
2022-10-19T22:55:53.368Z,101632.84
2022-10-19T22:58:21.415Z,101632.84
2022-10-19T23:01:01.192Z,101639.03
2022-10-19T23:03:29.528Z,101639.94
2022-10-19T23:06:00.302Z,101647.88
2022-10-19T23:08:28.695Z,101644.34
2022-10-19T23:10:57.043Z,101641.75
2022-10-19T23:13:25.218Z,101647.06
2022-10-19T23:15:53.634Z,101652.41
2022-10-19T23:18:22.269Z,101659.44
2022-10-19T23:20:57.934Z,101660.28
2022-10-19T23:23:26.506Z,101663.78
2022-10-19T23:26:02.802Z,101673.47
2022-10-19T23:28:32.648Z,101669.19
2022-10-19T23:31:05.665Z,101672.72
2022-10-19T23:33:34.914Z,101682.41
2022-10-19T23:36:16.109Z,101686.81
2022-10-19T23:38:46.307Z,101682.31
2022-10-19T23:41:16.445Z,101683.19
2022-10-19T23:43:45.165Z,101674.31
2022-10-19T23:46:15.742Z,101675.16
2022-10-19T23:48:47.661Z,101672.50
2022-10-19T23:51:21.401Z,101668.16
2022-10-19T23:53:55.785Z,101661.13
2022-10-19T23:56:30.204Z,101662.03
2022-10-19T23:59:10.395Z,101652.28
